Time;durP1;ratioP1;P1;durP2;ratioP2;P2;SDS_P1;SDS_P2;PMS_P1;PMS_P2;Temp;Humidity;BMP_temperature;BMP_pressure;BME280_temperature;BME280_humidity;BME280_pressure;Samples;Min_cycle;Max_cycle;Signal;HPM_P1;HPM_P2
2022/10/01 00:01:08;;;;;;;;;;;;;;;;;;5014870;28;19913;-77
2022/10/01 00:03:33;;;;;;;;;;;;;;;;;;5014848;28;19926;-76
2022/10/01 00:05:59;;;;;;;;;;;;;;;;;;5014985;28;19913;-76
2022/10/01 00:08:26;;;;;;;;;;;;;;;;;;5014736;28;20361;-77
2022/10/01 00:10:51;;;;;;;;;;;;;;;;;;5015067;28;19956;-76
2022/10/01 00:13:17;;;;;;;;;;;;;;;;;;5034090;28;19952;-75
2022/10/01 00:15:42;;;;;;;;;;;;;;;;;;5034630;28;19913;-76
2022/10/01 00:18:09;;;;;;;;;;;;;;;;;;5034607;28;19967;-76
2022/10/01 00:20:35;;;;;;;;;;;;;;;;;;5033440;28;20404;-78
2022/10/01 00:23:00;;;;;;;;;;;;;;;;;;5034132;28;19956;-74
2022/10/01 00:25:25;;;;;;;;;;;;;;;;;;5033123;28;19913;-76
2022/10/01 00:27:51;;;;;;;;;;;;;;;;;;5029305;28;19961;-77
2022/10/01 00:30:16;;;;;;;;;;;;;;;;;;5013417;28;19960;-77
2022/10/01 00:32:42;;;;;;;;;;;;;;;;;;5012999;28;19918;-77
2022/10/01 00:35:08;;;;;;;;;;;;;;;;;;5014405;28;19910;-75
2022/10/01 00:37:34;;;;;;;;;;;;;;;;;;5014166;28;19920;-77
2022/10/01 00:39:59;;;;;;;;;;;;;;;;;;5014264;28;20000;-77
2022/10/01 00:42:25;;;;;;;;;;;;;;;;;;5012792;28;20381;-77
2022/10/01 00:44:52;;;;;;;;;;;;;;;;;;5016967;28;20434;-77
2022/10/01 00:47:17;;;;;;;;;;;;;;;;;;5033939;28;19909;-75
2022/10/01 00:49:42;;;;;;;;;;;;;;;;;;5033643;28;19920;-77
2022/10/01 00:52:08;;;;;;;;;;;;;;;;;;5016181;28;19917;-77
2022/10/01 00:54:33;;;;;;;;;;;;;;;;;;5033030;28;19967;-77
2022/10/01 00:56:59;;;;;;;;;;;;;;;;;;5034002;28;19913;-77
2022/10/01 00:59:24;;;;;;;;;;;;;;;;;;5032556;28;20001;-75
2022/10/01 01:01:49;;;;;;;;;;;;;;;;;;5033769;28;19948;-77
2022/10/01 01:04:15;;;;;;;;;;;;;;;;;;5032782;28;20380;-75
2022/10/01 01:06:40;;;;;;;;;;;;;;;;;;5032530;28;19971;-76
2022/10/01 01:09:05;;;;;;;;;;;;;;;;;;5032422;28;19914;-75
2022/10/01 01:11:31;;;;;;;;;;;;;;;;;;5015811;28;20380;-75
2022/10/01 01:13:57;;;;;;;;;;;;;;;;;;5033339;28;19932;-76
2022/10/01 01:16:22;;;;;;;;;;;;;;;;;;5033677;28;19913;-77
2022/10/01 01:18:48;;;;;;;;;;;;;;;;;;5032398;28;20007;-76
2022/10/01 01:21:13;;;;;;;;;;;;;;;;;;5029608;28;19921;-76
2022/10/01 01:23:40;;;;;;;;;;;;;;;;;;5034964;28;19935;-76
2022/10/01 01:26:05;;;;;;;;;;;;;;;;;;5035711;28;19913;-77
2022/10/01 01:28:30;;;;;;;;;;;;;;;;;;5036338;28;19995;-76
2022/10/01 01:30:56;;;;;;;;;;;;;;;;;;5032235;28;20411;-76
2022/10/01 01:33:21;;;;;;;;;;;;;;;;;;5033090;28;19975;-76
2022/10/01 01:35:47;;;;;;;;;;;;;;;;;;5031982;28;19909;-76
2022/10/01 01:38:13;;;;;;;;;;;;;;;;;;5032914;28;19917;-75
2022/10/01 01:40:38;;;;;;;;;;;;;;;;;;5031416;28;19919;-76
2022/10/01 01:43:04;;;;;;;;;;;;;;;;;;5031749;28;19913;-77
2022/10/01 01:45:29;;;;;;;;;;;;;;;;;;5032797;28;19972;-76
2022/10/01 01:47:55;;;;;;;;;;;;;;;;;;5032955;28;19974;-75
2022/10/01 01:50:20;;;;;;;;;;;;;;;;;;5032884;28;20016;-75
2022/10/01 01:52:45;;;;;;;;;;;;;;;;;;5061852;23;19925;-75
2022/10/01 01:55:11;;;;;;;;;;;;;;;;;;5055840;28;19917;-76
2022/10/01 01:57:36;;;;;;;;;;;;;;;;;;5043694;28;19920;-74
2022/10/01 02:00:02;;;;;;;;;;;;;;;;;;5077763;28;20430;-74
2022/10/01 02:02:32;;;;;;;;;;;;;;;;;;5076737;28;19908;-75
2022/10/01 02:04:58;;;;;;;;;;;;;;;;;;5060257;28;19966;-75
2022/10/01 02:07:23;;;;;;;;;;;;;;;;;;5077599;28;19908;-75
2022/10/01 02:09:49;;;;;;;;;;;;;;;;;;5062092;28;19917;-76
2022/10/01 02:12:14;;;;;;;;;;;;;;;;;;5045554;28;19913;-76
2022/10/01 02:14:39;;;;;;;;;;;;;;;;;;5060436;28;19913;-75
2022/10/01 02:17:05;;;;;;;;;;;;;;;;;;5044246;28;19919;-76
2022/10/01 02:19:32;;;;;;;;;;;;;;;;;;5045637;28;19920;-76
2022/10/01 02:21:57;;;;;;;;;;;;;;;;;;5029109;28;20498;-74
2022/10/01 02:24:23;;;;;;;;;;;;;;;;;;5043241;28;19917;-75
2022/10/01 02:26:48;;;;;;;;;;;;;;;;;;5061644;28;19913;-75
2022/10/01 02:29:14;;;;;;;;;;;;;;;;;;5022721;28;19955;-75
2022/10/01 02:31:39;;;;;;;;;;;;;;;;;;5061895;28;19920;-75
2022/10/01 02:34:05;;;;;;;;;;;;;;;;;;5011549;28;19913;-75
2022/10/01 02:36:31;;;;;;;;;;;;;;;;;;5062152;28;19912;-75
2022/10/01 02:38:57;;;;;;;;;;;;;;;;;;5045323;28;19913;-76
2022/10/01 02:41:22;;;;;;;;;;;;;;;;;;5062516;28;19944;-74
2022/10/01 02:43:50;;;;;;;;;;;;;;;;;;5027851;28;19917;-75
2022/10/01 02:46:15;;;;;;;;;;;;;;;;;;5055322;28;19974;-75
2022/10/01 02:48:41;;;;;;;;;;;;;;;;;;5066600;28;20329;-75
2022/10/01 02:51:06;;;;;;;;;;;;;;;;;;5082457;28;20307;-75
2022/10/01 02:53:31;;;;;;;;;;;;;;;;;;5063571;28;20325;-76
2022/10/01 02:55:57;;;;;;;;;;;;;;;;;;5063494;28;19955;-76
2022/10/01 02:58:22;;;;;;;;;;;;;;;;;;5046594;28;19908;-77
2022/10/01 03:00:48;;;;;;;;;;;;;;;;;;5064150;28;20294;-76
2022/10/01 03:03:13;;;;;;;;;;;;;;;;;;5081805;28;19912;-74
2022/10/01 03:05:39;;;;;;;;;;;;;;;;;;5041107;28;19918;-76
2022/10/01 03:08:04;;;;;;;;;;;;;;;;;;5043502;28;19919;-74
2022/10/01 03:10:30;;;;;;;;;;;;;;;;;;5041056;28;19963;-75
2022/10/01 03:12:55;;;;;;;;;;;;;;;;;;5009494;28;20000;-74
2022/10/01 03:15:21;;;;;;;;;;;;;;;;;;5028821;28;19913;-74
2022/10/01 03:17:46;;;;;;;;;;;;;;;;;;5045831;28;20014;-75
2022/10/01 03:20:12;;;;;;;;;;;;;;;;;;5014093;28;19945;-73
2022/10/01 03:22:37;;;;;;;;;;;;;;;;;;5027574;28;19912;-75
2022/10/01 03:25:02;;;;;;;;;;;;;;;;;;5013696;28;19966;-75
2022/10/01 03:27:28;;;;;;;;;;;;;;;;;;5028360;28;19913;-75
2022/10/01 03:29:53;;;;;;;;;;;;;;;;;;5045063;28;19915;-76
2022/10/01 03:32:19;;;;;;;;;;;;;;;;;;5027847;28;19917;-75
2022/10/01 03:34:45;;;;;;;;;;;;;;;;;;5044014;28;19913;-75
2022/10/01 03:37:10;;;;;;;;;;;;;;;;;;5026460;28;20027;-75
2022/10/01 03:39:35;;;;;;;;;;;;;;;;;;5026612;28;19968;-75
2022/10/01 03:42:01;;;;;;;;;;;;;;;;;;5029650;28;19919;-75
2022/10/01 03:44:29;;;;;;;;;;;;;;;;;;5030080;28;19916;-76
2022/10/01 03:46:55;;;;;;;;;;;;;;;;;;5034145;28;20271;-75
2022/10/01 03:49:20;;;;;;;;;;;;;;;;;;5033966;28;20382;-74
2022/10/01 03:51:45;;;;;;;;;;;;;;;;;;5066768;28;19984;-75
2022/10/01 03:54:11;;;;;;;;;;;;;;;;;;5032952;28;19983;-74
2022/10/01 03:56:39;;;;;;;;;;;;;;;;;;5016149;28;19913;-73
2022/10/01 03:59:05;;;;;;;;;;;;;;;;;;5042260;28;19920;-75
2022/10/01 04:01:30;;;;;;;;;;;;;;;;;;5009174;28;20307;-75
2022/10/01 04:03:56;;;;;;;;;;;;;;;;;;4992872;28;20348;-75
2022/10/01 04:06:21;;;;;;;;;;;;;;;;;;5023668;28;19917;-76
2022/10/01 04:08:46;;;;;;;;;;;;;;;;;;5024387;28;19964;-76
2022/10/01 04:11:12;;;;;;;;;;;;;;;;;;5025047;28;19913;-75
2022/10/01 04:13:37;;;;;;;;;;;;;;;;;;5041925;28;19915;-75
2022/10/01 04:16:03;;;;;;;;;;;;;;;;;;5080233;28;19913;-76
2022/10/01 04:18:28;;;;;;;;;;;;;;;;;;5047913;28;19990;-76
2022/10/01 04:20:54;;;;;;;;;;;;;;;;;;5082645;28;19915;-76
2022/10/01 04:23:19;;;;;;;;;;;;;;;;;;5033419;28;19975;-75
2022/10/01 04:25:45;;;;;;;;;;;;;;;;;;5065237;28;19917;-75
2022/10/01 04:28:10;;;;;;;;;;;;;;;;;;5031128;28;19908;-74
2022/10/01 04:30:36;;;;;;;;;;;;;;;;;;5010671;28;20012;-75
2022/10/01 04:33:01;;;;;;;;;;;;;;;;;;5029041;28;19984;-76
2022/10/01 04:35:27;;;;;;;;;;;;;;;;;;5026578;28;19910;-75
2022/10/01 04:37:52;;;;;;;;;;;;;;;;;;4994650;28;19921;-76
2022/10/01 04:40:18;;;;;;;;;;;;;;;;;;5027614;28;19920;-75
2022/10/01 04:42:43;;;;;;;;;;;;;;;;;;5026067;28;20361;-75
2022/10/01 04:45:08;;;;;;;;;;;;;;;;;;4995525;28;19939;-75
2022/10/01 04:47:34;;;;;;;;;;;;;;;;;;5045632;28;19913;-76
2022/10/01 04:49:59;;;;;;;;;;;;;;;;;;5030393;28;19913;-75
2022/10/01 04:52:25;;;;;;;;;;;;;;;;;;5012919;28;20351;-76
2022/10/01 04:54:51;;;;;;;;;;;;;;;;;;5029781;28;19913;-75
2022/10/01 04:57:16;;;;;;;;;;;;;;;;;;5045353;28;20298;-74
2022/10/01 04:59:42;;;;;;;;;;;;;;;;;;5045068;28;20378;-76
2022/10/01 05:02:07;;;;;;;;;;;;;;;;;;5024130;28;19912;-76
2022/10/01 05:04:33;;;;;;;;;;;;;;;;;;5031477;28;19932;-76
2022/10/01 05:06:58;;;;;;;;;;;;;;;;;;5046876;28;19912;-75
2022/10/01 05:09:24;;;;;;;;;;;;;;;;;;5030598;28;19920;-75
2022/10/01 05:11:50;;;;;;;;;;;;;;;;;;5065751;28;19909;-76
2022/10/01 05:14:18;;;;;;;;;;;;;;;;;;5014487;28;19912;-75
2022/10/01 05:16:43;;;;;;;;;;;;;;;;;;5029733;28;19991;-76
2022/10/01 05:19:08;;;;;;;;;;;;;;;;;;5064580;28;19933;-75
2022/10/01 05:21:34;;;;;;;;;;;;;;;;;;5048122;28;19912;-74
2022/10/01 05:23:59;;;;;;;;;;;;;;;;;;5047771;28;19959;-75
2022/10/01 05:26:25;;;;;;;;;;;;;;;;;;5029405;28;19912;-75
2022/10/01 05:28:52;;;;;;;;;;;;;;;;;;5045289;28;20347;-76
2022/10/01 05:31:18;;;;;;;;;;;;;;;;;;5078936;28;19912;-75
2022/10/01 05:33:43;;;;;;;;;;;;;;;;;;5043590;28;19923;-74
2022/10/01 05:36:09;;;;;;;;;;;;;;;;;;5052739;28;19948;-75
2022/10/01 05:38:37;;;;;;;;;;;;;;;;;;5039424;28;19913;-75
2022/10/01 05:41:03;;;;;;;;;;;;;;;;;;5021285;28;20359;-75
2022/10/01 05:43:29;;;;;;;;;;;;;;;;;;5021229;28;19919;-76
2022/10/01 05:45:55;;;;;;;;;;;;;;;;;;5021461;28;19984;-75
2022/10/01 05:48:20;;;;;;;;;;;;;;;;;;5021789;28;20399;-75
2022/10/01 05:50:46;;;;;;;;;;;;;;;;;;5021550;28;19916;-76
2022/10/01 05:53:12;;;;;;;;;;;;;;;;;;5054896;28;20291;-76
2022/10/01 05:55:38;;;;;;;;;;;;;;;;;;5063828;28;19924;-74
2022/10/01 05:58:03;;;;;;;;;;;;;;;;;;5041067;28;19913;-75
2022/10/01 06:00:29;;;;;;;;;;;;;;;;;;5056890;28;19913;-75
2022/10/01 06:02:55;;;;;;;;;;;;;;;;;;5023424;28;19932;-74
2022/10/01 06:05:20;;;;;;;;;;;;;;;;;;5040109;28;19917;-74
2022/10/01 06:07:47;;;;;;;;;;;;;;;;;;5023555;28;20334;-74
2022/10/01 06:10:13;;;;;;;;;;;;;;;;;;5074035;28;19912;-75
2022/10/01 06:12:38;;;;;;;;;;;;;;;;;;5022597;28;19936;-76
2022/10/01 06:15:04;;;;;;;;;;;;;;;;;;5004042;28;19959;-73
2022/10/01 06:17:29;;;;;;;;;;;;;;;;;;5020025;28;19913;-74
2022/10/01 06:19:55;;;;;;;;;;;;;;;;;;5021697;28;19913;-76
2022/10/01 06:22:21;;;;;;;;;;;;;;;;;;5005874;28;19913;-76
2022/10/01 06:24:46;;;;;;;;;;;;;;;;;;5021444;28;19924;-77
2022/10/01 06:27:12;;;;;;;;;;;;;;;;;;5037870;28;19920;-75
2022/10/01 06:29:38;;;;;;;;;;;;;;;;;;5003546;28;19920;-76
2022/10/01 06:32:04;;;;;;;;;;;;;;;;;;5022592;28;20307;-74
2022/10/01 06:34:29;;;;;;;;;;;;;;;;;;5056209;28;19913;-72
2022/10/01 06:36:55;;;;;;;;;;;;;;;;;;5059110;28;19929;-74
2022/10/01 06:39:21;;;;;;;;;;;;;;;;;;5040314;28;20436;-74
2022/10/01 06:41:46;;;;;;;;;;;;;;;;;;5023865;28;20338;-73
2022/10/01 06:44:13;;;;;;;;;;;;;;;;;;5022458;28;19913;-73
2022/10/01 06:46:39;;;;;;;;;;;;;;;;;;5021868;28;19947;-74
2022/10/01 06:49:05;;;;;;;;;;;;;;;;;;4988519;28;20300;-73
2022/10/01 06:54:17;;;;;;;;;;;;;;;;;;5023265;28;19917;-73
2022/10/01 06:56:42;;;;;;;;;;;;;;;;;;5040030;28;19917;-74
2022/10/01 06:59:08;;;;;;;;;;;;;;;;;;5023491;28;19932;-74
2022/10/01 07:01:35;;;;;;;;;;;;;;;;;;5024754;28;19913;-74
2022/10/01 07:04:00;;;;;;;;;;;;;;;;;;5008271;28;20281;-75
2022/10/01 07:06:26;;;;;;;;;;;;;;;;;;5037588;28;20429;-73
2022/10/01 07:08:51;;;;;;;;;;;;;;;;;;5025608;28;20367;-74
2022/10/01 07:11:17;;;;;;;;;;;;;;;;;;5026416;28;19942;-74
2022/10/01 07:13:43;;;;;;;;;;;;;;;;;;5042981;28;19959;-75
2022/10/01 07:16:09;;;;;;;;;;;;;;;;;;5062694;28;19920;-75
2022/10/01 07:18:35;;;;;;;;;;;;;;;;;;5062411;28;19913;-73
2022/10/01 07:21:00;;;;;;;;;;;;;;;;;;5042712;28;19917;-75
2022/10/01 07:23:26;;;;;;;;;;;;;;;;;;5053879;28;20257;-75
2022/10/01 07:25:51;;;;;;;;;;;;;;;;;;5045934;28;19926;-73
2022/10/01 07:28:17;;;;;;;;;;;;;;;;;;5047666;28;19919;-74
2022/10/01 07:30:46;;;;;;;;;;;;;;;;;;5064556;28;19912;-73
2022/10/01 07:33:12;;;;;;;;;;;;;;;;;;5065642;28;19912;-73
2022/10/01 07:35:37;;;;;;;;;;;;;;;;;;5083507;28;20364;-73
2022/10/01 07:38:06;;;;;;;;;;;;;;;;;;5083892;28;20302;-74
2022/10/01 07:40:32;;;;;;;;;;;;;;;;;;5062692;28;19917;-74
2022/10/01 07:42:58;;;;;;;;;;;;;;;;;;5026119;28;19913;-74
2022/10/01 07:45:23;;;;;;;;;;;;;;;;;;5025228;28;19917;-75
2022/10/01 07:47:49;;;;;;;;;;;;;;;;;;5043529;28;19920;-74
2022/10/01 07:50:15;;;;;;;;;;;;;;;;;;5043135;28;19967;-73
2022/10/01 07:52:40;;;;;;;;;;;;;;;;;;5046410;23;20034;-75
2022/10/01 07:55:09;;;;;;;;;;;;;;;;;;5094898;28;19912;-77
2022/10/01 07:57:35;;;;;;;;;;;;;;;;;;5088829;28;19923;-76
2022/10/01 08:00:01;;;;;;;;;;;;;;;;;;5093278;28;20290;-77
2022/10/01 08:02:26;;;;;;;;;;;;;;;;;;5056846;28;19961;-74
2022/10/01 08:07:36;;;;;;;;;;;;;;;;;;5074605;28;20045;-76
2022/10/01 08:10:03;;;;;;;;;;;;;;;;;;5073283;28;19997;-75
2022/10/01 08:12:29;;;;;;;;;;;;;;;;;;5090012;28;19999;-75
2022/10/01 08:14:54;;;;;;;;;;;;;;;;;;5073837;28;20445;-74
2022/10/01 08:17:20;;;;;;;;;;;;;;;;;;5065855;28;20426;-76
2022/10/01 08:19:45;;;;;;;;;;;;;;;;;;5036791;28;19954;-76
2022/10/01 08:22:11;;;;;;;;;;;;;;;;;;5036753;28;20012;-76
2022/10/01 08:24:36;;;;;;;;;;;;;;;;;;5053878;28;19924;-76
2022/10/01 08:27:02;;;;;;;;;;;;;;;;;;5036517;28;19913;-77
2022/10/01 08:29:27;;;;;;;;;;;;;;;;;;5019951;28;19919;-76
2022/10/01 08:31:52;;;;;;;;;;;;;;;;;;5069461;28;19913;-77
2022/10/01 08:34:18;;;;;;;;;;;;;;;;;;5060407;28;19927;-77
2022/10/01 08:36:43;;;;;;;;;;;;;;;;;;5073915;28;19920;-76
2022/10/01 08:39:08;;;;;;;;;;;;;;;;;;5072884;28;19920;-77
2022/10/01 08:41:34;;;;;;;;;;;;;;;;;;5072586;28;19912;-77
2022/10/01 08:43:59;;;;;;;;;;;;;;;;;;5089169;28;19920;-77
2022/10/01 08:46:25;;;;;;;;;;;;;;;;;;5073801;28;19912;-75
2022/10/01 08:48:52;;;;;;;;;;;;;;;;;;5070903;28;19960;-74
2022/10/01 08:51:17;;;;;;;;;;;;;;;;;;5069914;28;20295;-76
2022/10/01 08:53:42;;;;;;;;;;;;;;;;;;5073711;28;19923;-76
2022/10/01 08:56:08;;;;;;;;;;;;;;;;;;5072961;28;19913;-76
2022/10/01 08:58:33;;;;;;;;;;;;;;;;;;5072785;28;20434;-76
2022/10/01 09:00:58;;;;;;;;;;;;;;;;;;5072389;28;20379;-75
2022/10/01 09:03:25;;;;;;;;;;;;;;;;;;5073613;28;20382;-76
2022/10/01 09:05:50;;;;;;;;;;;;;;;;;;5073885;28;19916;-77
2022/10/01 09:08:15;;;;;;;;;;;;;;;;;;5071636;28;19912;-75
2022/10/01 09:10:42;;;;;;;;;;;;;;;;;;5055536;28;19919;-74
2022/10/01 09:13:07;;;;;;;;;;;;;;;;;;5073419;28;19919;-76
2022/10/01 09:15:32;;;;;;;;;;;;;;;;;;5073579;28;19912;-77
2022/10/01 09:17:58;;;;;;;;;;;;;;;;;;5073967;28;20436;-76
2022/10/01 09:20:23;;;;;;;;;;;;;;;;;;5055644;28;20434;-76
2022/10/01 09:22:49;;;;;;;;;;;;;;;;;;5072585;28;19912;-76
2022/10/01 09:25:14;;;;;;;;;;;;;;;;;;5063333;28;20114;-77
2022/10/01 09:27:39;;;;;;;;;;;;;;;;;;5053395;28;19913;-76
2022/10/01 09:30:05;;;;;;;;;;;;;;;;;;5056519;28;19916;-76
2022/10/01 09:32:30;;;;;;;;;;;;;;;;;;5063052;28;19927;-75
2022/10/01 09:34:59;;;;;;;;;;;;;;;;;;5063983;28;19959;-74
2022/10/01 09:37:25;;;;;;;;;;;;;;;;;;5064322;28;19913;-76
2022/10/01 09:39:50;;;;;;;;;;;;;;;;;;5062203;28;19920;-76
2022/10/01 09:42:17;;;;;;;;;;;;;;;;;;5082322;28;19920;-74
2022/10/01 09:44:42;;;;;;;;;;;;;;;;;;5082136;28;19963;-76
2022/10/01 09:47:07;;;;;;;;;;;;;;;;;;5078460;28;19919;-76
2022/10/01 09:49:33;;;;;;;;;;;;;;;;;;5090212;28;19919;-75
2022/10/01 09:52:01;;;;;;;;;;;;;;;;;;5075078;28;19995;-76
2022/10/01 09:54:26;;;;;;;;;;;;;;;;;;5073861;28;19916;-77
2022/10/01 09:56:52;;;;;;;;;;;;;;;;;;5070314;28;19919;-76
2022/10/01 09:59:17;;;;;;;;;;;;;;;;;;5052901;28;20043;-76
2022/10/01 10:01:42;;;;;;;;;;;;;;;;;;5052605;28;19913;-75
2022/10/01 10:04:08;;;;;;;;;;;;;;;;;;5034286;28;19986;-75
2022/10/01 10:06:33;;;;;;;;;;;;;;;;;;5052537;28;20003;-77
2022/10/01 10:09:00;;;;;;;;;;;;;;;;;;5050970;28;19913;-77
2022/10/01 10:11:25;;;;;;;;;;;;;;;;;;5052416;28;19917;-76
2022/10/01 10:13:50;;;;;;;;;;;;;;;;;;5056361;28;19919;-75
2022/10/01 10:16:16;;;;;;;;;;;;;;;;;;5053042;28;19936;-76
2022/10/01 10:18:41;;;;;;;;;;;;;;;;;;5052821;28;20319;-77
2022/10/01 10:21:07;;;;;;;;;;;;;;;;;;5052816;28;19959;-76
2022/10/01 10:23:33;;;;;;;;;;;;;;;;;;5067203;28;19913;-76
2022/10/01 10:26:01;;;;;;;;;;;;;;;;;;5054504;28;20000;-75
2022/10/01 10:28:27;;;;;;;;;;;;;;;;;;5054384;28;19916;-77
2022/10/01 10:30:52;;;;;;;;;;;;;;;;;;5056099;28;20375;-76
2022/10/01 10:33:19;;;;;;;;;;;;;;;;;;5058957;28;20003;-76
2022/10/01 10:35:44;;;;;;;;;;;;;;;;;;5071128;28;20447;-77
2022/10/01 10:38:10;;;;;;;;;;;;;;;;;;5052945;28;19971;-76
2022/10/01 10:40:36;;;;;;;;;;;;;;;;;;5052603;28;19979;-76
2022/10/01 10:43:02;;;;;;;;;;;;;;;;;;5052355;28;19912;-78
2022/10/01 10:45:28;;;;;;;;;;;;;;;;;;5051590;28;20223;-78
2022/10/01 10:47:53;;;;;;;;;;;;;;;;;;5054339;28;19919;-76
2022/10/01 10:50:19;;;;;;;;;;;;;;;;;;5072181;28;19924;-76
2022/10/01 10:52:44;;;;;;;;;;;;;;;;;;5070666;28;20480;-76
2022/10/01 10:55:09;;;;;;;;;;;;;;;;;;5070306;28;20299;-76
2022/10/01 10:57:35;;;;;;;;;;;;;;;;;;5071581;28;20375;-75
2022/10/01 11:00:00;;;;;;;;;;;;;;;;;;5071545;28;19922;-75
2022/10/01 11:02:28;;;;;;;;;;;;;;;;;;5071519;28;19912;-76
2022/10/01 11:04:53;;;;;;;;;;;;;;;;;;5084469;28;19939;-76
2022/10/01 11:07:19;;;;;;;;;;;;;;;;;;5051467;28;20411;-77
2022/10/01 11:09:44;;;;;;;;;;;;;;;;;;5051619;28;19913;-76
2022/10/01 11:12:10;;;;;;;;;;;;;;;;;;5051100;28;19913;-75
2022/10/01 11:14:35;;;;;;;;;;;;;;;;;;5055135;28;20299;-76
2022/10/01 11:17:00;;;;;;;;;;;;;;;;;;5057231;28;19913;-76
2022/10/01 11:19:26;;;;;;;;;;;;;;;;;;5057724;28;19920;-76
2022/10/01 11:21:51;;;;;;;;;;;;;;;;;;5058459;28;19951;-74
2022/10/01 11:24:16;;;;;;;;;;;;;;;;;;5073707;28;19967;-75
2022/10/01 11:26:42;;;;;;;;;;;;;;;;;;5057509;28;19912;-75
2022/10/01 11:29:07;;;;;;;;;;;;;;;;;;5071188;28;19919;-76
2022/10/01 11:31:32;;;;;;;;;;;;;;;;;;5075918;28;19984;-79
2022/10/01 11:33:58;;;;;;;;;;;;;;;;;;5078149;28;19944;-75
2022/10/01 11:36:23;;;;;;;;;;;;;;;;;;5080228;28;19913;-74
2022/10/01 11:38:49;;;;;;;;;;;;;;;;;;5076570;28;19916;-75
2022/10/01 11:41:14;;;;;;;;;;;;;;;;;;5059660;28;19912;-75
2022/10/01 11:43:40;;;;;;;;;;;;;;;;;;5060714;28;19913;-75
2022/10/01 11:46:05;;;;;;;;;;;;;;;;;;5041841;28;19958;-74
2022/10/01 11:48:31;;;;;;;;;;;;;;;;;;5056475;28;19913;-74
2022/10/01 11:50:57;;;;;;;;;;;;;;;;;;5055147;28;19915;-75
2022/10/01 11:53:23;;;;;;;;;;;;;;;;;;5070046;28;19917;-75
2022/10/01 11:58:51;;;;;;;;;;;;;;;;;;5054596;28;19913;-74
2022/10/01 12:01:17;;;;;;;;;;;;;;;;;;5053828;28;19919;-74
2022/10/01 12:03:42;;;;;;;;;;;;;;;;;;5054175;28;19913;-73
2022/10/01 12:06:08;;;;;;;;;;;;;;;;;;5037200;28;19913;-75
2022/10/01 12:08:33;;;;;;;;;;;;;;;;;;5053413;28;20375;-77
2022/10/01 12:11:00;;;;;;;;;;;;;;;;;;5054910;28;19913;-74
2022/10/01 12:13:25;;;;;;;;;;;;;;;;;;5054436;28;19916;-75
2022/10/01 12:15:51;;;;;;;;;;;;;;;;;;5058303;28;19915;-75
2022/10/01 12:18:16;;;;;;;;;;;;;;;;;;5054948;28;20383;-75
2022/10/01 12:20:41;;;;;;;;;;;;;;;;;;5053910;28;19948;-75
2022/10/01 12:23:10;;;;;;;;;;;;;;;;;;5057249;28;19920;-73
2022/10/01 12:25:36;;;;;;;;;;;;;;;;;;5072783;28;19920;-75
2022/10/01 12:28:02;;;;;;;;;;;;;;;;;;5056923;28;19912;-77
2022/10/01 12:30:28;;;;;;;;;;;;;;;;;;5057596;28;19986;-74
2022/10/01 12:32:53;;;;;;;;;;;;;;;;;;5057021;28;19958;-74
2022/10/01 12:35:19;;;;;;;;;;;;;;;;;;5053904;28;19912;-74
2022/10/01 12:37:44;;;;;;;;;;;;;;;;;;5053230;28;19915;-75
2022/10/01 12:40:10;;;;;;;;;;;;;;;;;;5071622;28;19913;-74
2022/10/01 12:42:35;;;;;;;;;;;;;;;;;;5053927;28;19924;-75
2022/10/01 12:45:00;;;;;;;;;;;;;;;;;;5069729;28;20303;-74
2022/10/01 12:47:27;;;;;;;;;;;;;;;;;;5053660;28;20299;-76
2022/10/01 12:49:52;;;;;;;;;;;;;;;;;;5052034;28;19913;-76
2022/10/01 12:52:17;;;;;;;;;;;;;;;;;;5072886;28;20385;-75
2022/10/01 12:54:43;;;;;;;;;;;;;;;;;;5073343;28;19916;-74
2022/10/01 12:57:08;;;;;;;;;;;;;;;;;;5072448;28;19913;-76
2022/10/01 12:59:34;;;;;;;;;;;;;;;;;;5073782;28;19947;-75
2022/10/01 13:01:59;;;;;;;;;;;;;;;;;;5075329;28;19912;-75
2022/10/01 13:04:24;;;;;;;;;;;;;;;;;;5068818;28;20019;-75
2022/10/01 13:06:50;;;;;;;;;;;;;;;;;;5069177;28;20348;-79
2022/10/01 13:09:15;;;;;;;;;;;;;;;;;;5054071;28;20451;-75
2022/10/01 13:11:40;;;;;;;;;;;;;;;;;;5053144;28;20395;-76
2022/10/01 13:14:07;;;;;;;;;;;;;;;;;;5051904;28;20376;-76
2022/10/01 13:16:32;;;;;;;;;;;;;;;;;;5054065;28;20364;-76
2022/10/01 13:18:57;;;;;;;;;;;;;;;;;;5053962;28;19913;-75
2022/10/01 13:21:23;;;;;;;;;;;;;;;;;;5061943;28;20434;-76
2022/10/01 13:23:48;;;;;;;;;;;;;;;;;;5071840;28;19918;-75
2022/10/01 13:26:16;;;;;;;;;;;;;;;;;;5071972;28;20299;-76
2022/10/01 13:28:41;;;;;;;;;;;;;;;;;;5072500;28;19912;-78
2022/10/01 13:31:07;;;;;;;;;;;;;;;;;;5089975;28;19989;-75
2022/10/01 13:33:34;;;;;;;;;;;;;;;;;;5074132;28;19966;-75
2022/10/01 13:36:00;;;;;;;;;;;;;;;;;;5074830;28;19920;-76
2022/10/01 13:38:28;;;;;;;;;;;;;;;;;;5066687;28;19916;-77
2022/10/01 13:40:53;;;;;;;;;;;;;;;;;;5072725;28;19912;-77
2022/10/01 13:43:18;;;;;;;;;;;;;;;;;;5089287;28;19912;-76
2022/10/01 13:45:44;;;;;;;;;;;;;;;;;;5073360;28;19916;-76
2022/10/01 13:48:09;;;;;;;;;;;;;;;;;;5072439;28;19943;-78
2022/10/01 13:50:34;;;;;;;;;;;;;;;;;;5071206;28;20264;-77
2022/10/01 13:53:00;;;;;;;;;;;;;;;;;;5097169;22;19974;-75
2022/10/01 13:55:25;;;;;;;;;;;;;;;;;;5069170;28;19917;-75
2022/10/01 13:57:51;;;;;;;;;;;;;;;;;;5069614;28;19919;-75
2022/10/01 14:00:16;;;;;;;;;;;;;;;;;;5054775;28;19912;-75
2022/10/01 14:02:42;;;;;;;;;;;;;;;;;;5072457;28;20374;-75
2022/10/01 14:05:07;;;;;;;;;;;;;;;;;;5072505;28;19919;-75
2022/10/01 14:07:32;;;;;;;;;;;;;;;;;;5072606;28;19940;-74
2022/10/01 14:09:58;;;;;;;;;;;;;;;;;;5072360;28;19916;-75
2022/10/01 14:17:52;;;;;;;;;;;;;;;;;;5052743;28;19913;-75
2022/10/01 14:20:17;;;;;;;;;;;;;;;;;;5052272;28;19920;-75
2022/10/01 14:22:43;;;;;;;;;;;;;;;;;;5051848;28;19913;-75
2022/10/01 14:25:08;;;;;;;;;;;;;;;;;;5052402;28;19920;-75
2022/10/01 14:27:33;;;;;;;;;;;;;;;;;;5052091;28;19915;-75
2022/10/01 14:29:59;;;;;;;;;;;;;;;;;;5051774;28;19917;-75
2022/10/01 14:32:24;;;;;;;;;;;;;;;;;;5066460;28;20314;-75
2022/10/01 14:34:49;;;;;;;;;;;;;;;;;;5071689;28;20003;-75
2022/10/01 14:37:15;;;;;;;;;;;;;;;;;;5070623;28;19913;-75
2022/10/01 14:39:40;;;;;;;;;;;;;;;;;;5070526;28;19920;-75
2022/10/01 14:42:05;;;;;;;;;;;;;;;;;;5072632;28;20045;-75
2022/10/01 14:44:31;;;;;;;;;;;;;;;;;;5071948;28;19961;-75
2022/10/01 14:46:56;;;;;;;;;;;;;;;;;;5070844;28;19935;-75
2022/10/01 14:49:22;;;;;;;;;;;;;;;;;;5054633;28;19924;-75
2022/10/01 14:51:47;;;;;;;;;;;;;;;;;;5051876;28;19912;-75
2022/10/01 14:54:13;;;;;;;;;;;;;;;;;;5051209;28;20384;-75
2022/10/01 14:56:38;;;;;;;;;;;;;;;;;;5052563;28;19917;-75
2022/10/01 14:59:06;;;;;;;;;;;;;;;;;;5034109;28;19912;-75
2022/10/01 15:01:31;;;;;;;;;;;;;;;;;;5050652;28;19935;-75
2022/10/01 15:03:56;;;;;;;;;;;;;;;;;;5051988;28;20430;-74
2022/10/01 15:06:22;;;;;;;;;;;;;;;;;;5069561;28;19912;-75
2022/10/01 15:08:47;;;;;;;;;;;;;;;;;;5070950;28;20399;-75
2022/10/01 15:11:12;;;;;;;;;;;;;;;;;;5075515;28;19928;-75
2022/10/01 15:13:38;;;;;;;;;;;;;;;;;;5075199;28;19929;-75
2022/10/01 15:16:03;;;;;;;;;;;;;;;;;;5073818;28;19920;-75
2022/10/01 15:18:29;;;;;;;;;;;;;;;;;;5075287;28;19941;-74
2022/10/01 15:20:54;;;;;;;;;;;;;;;;;;5074054;28;19931;-74
2022/10/01 15:23:19;;;;;;;;;;;;;;;;;;5064498;28;19913;-75
2022/10/01 15:25:45;;;;;;;;;;;;;;;;;;5055223;28;19919;-75
2022/10/01 15:28:10;;;;;;;;;;;;;;;;;;5055200;28;20277;-74
2022/10/01 15:30:36;;;;;;;;;;;;;;;;;;5055088;28;19927;-74
2022/10/01 15:33:01;;;;;;;;;;;;;;;;;;5054796;28;20053;-74
2022/10/01 15:35:27;;;;;;;;;;;;;;;;;;5054796;28;19913;-74
2022/10/01 15:37:52;;;;;;;;;;;;;;;;;;5053866;28;19912;-74
2022/10/01 15:40:17;;;;;;;;;;;;;;;;;;5055073;28;19917;-75
2022/10/01 15:42:44;;;;;;;;;;;;;;;;;;5068765;28;20114;-74
2022/10/01 15:45:09;;;;;;;;;;;;;;;;;;5074895;28;20011;-74
2022/10/01 15:47:35;;;;;;;;;;;;;;;;;;5075187;28;19995;-75
2022/10/01 15:50:01;;;;;;;;;;;;;;;;;;5073774;28;19944;-74
2022/10/01 15:55:10;;;;;;;;;;;;;;;;;;5076650;28;20367;-75
2022/10/01 15:57:36;;;;;;;;;;;;;;;;;;5075080;28;19908;-74
2022/10/01 16:00:01;;;;;;;;;;;;;;;;;;5056097;28;19920;-74
2022/10/01 16:02:26;;;;;;;;;;;;;;;;;;5054125;28;19913;-74
2022/10/01 16:04:54;;;;;;;;;;;;;;;;;;5053463;28;19917;-75
2022/10/01 16:07:20;;;;;;;;;;;;;;;;;;5054534;28;19996;-75
2022/10/01 16:09:45;;;;;;;;;;;;;;;;;;5053213;28;20374;-75
2022/10/01 16:12:11;;;;;;;;;;;;;;;;;;5054145;28;19917;-76
2022/10/01 16:14:38;;;;;;;;;;;;;;;;;;5053997;28;19913;-75
2022/10/01 16:17:03;;;;;;;;;;;;;;;;;;5066734;28;19913;-74
2022/10/01 16:19:29;;;;;;;;;;;;;;;;;;5073288;28;19916;-74
2022/10/01 16:21:54;;;;;;;;;;;;;;;;;;5072069;28;19931;-74
2022/10/01 16:24:20;;;;;;;;;;;;;;;;;;5072844;28;19917;-75
2022/10/01 16:26:45;;;;;;;;;;;;;;;;;;5056532;28;20011;-74
2022/10/01 16:29:10;;;;;;;;;;;;;;;;;;5056507;28;19917;-74
2022/10/01 16:31:36;;;;;;;;;;;;;;;;;;5071221;28;19912;-75
2022/10/01 16:34:01;;;;;;;;;;;;;;;;;;5052583;28;20343;-75
2022/10/01 16:36:27;;;;;;;;;;;;;;;;;;5054233;28;19928;-75
2022/10/01 16:38:52;;;;;;;;;;;;;;;;;;5052936;28;19920;-74
2022/10/01 16:41:17;;;;;;;;;;;;;;;;;;5054064;28;19909;-75
2022/10/01 16:43:43;;;;;;;;;;;;;;;;;;5052565;28;20031;-75
2022/10/01 16:46:09;;;;;;;;;;;;;;;;;;5035963;28;20272;-75
2022/10/01 16:48:34;;;;;;;;;;;;;;;;;;5057732;28;19919;-75
2022/10/01 16:51:00;;;;;;;;;;;;;;;;;;5072730;28;19923;-74